Aérodrome :
LOGIN :

S'inscrire | Disclaimer

   EN    FR    IT 

 










Légende :    VFR   VFR Marginal   IFR   IFR Intensif   IFR Très Intensif
Visi : 
Plafond : 
>= 8 km
>= 3000ft
5 à 8 km
1000 à 3000 ft
1500m à 5 km
500 à 1000 ft
800 à 1500m
200 à 500 ft
< 800m
< 200 ft
Symboles :   Orages  Brouillard  Fortes neiges  Fortes précipitations  Vent > 20 kt
SIGMETs :   Divers  Orages  Givrage  Turbulence  Onde Orograph.  Cendres Volcan.







- Altitude de l'aérodrome : 302 ft
- Code IATA : CGN


EDDK - Cologne Bonn

DERNIER METAR :
  • 190950Z 26010KT 220V300 9999 FEW037 19/11 Q1017 NOSIG

METARs EXPIRÉS :
  • 190920Z 24007KT 200V280 9999 FEW033 19/12 Q1016 NOSIG
  • 190850Z 25010KT 210V280 9999 FEW031 19/12 Q1016 NOSIG
  • 190820Z 24011KT 200V270 9999 FEW028 19/12 Q1016 NOSIG
  • 190750Z 24009KT 9999 FEW025 18/12 Q1016 NOSIG
  • 190720Z 23008KT CAVOK 17/11 Q1016 NOSIG

TAF TAF EDDK
Valide du 19 à 06h jusqu'au 20 à 12h UTC


190500Z 1906/2012 12004KT CAVOK
BECMG 1906/1909 25010KT
BECMG 1916/1919 27005KT
BECMG 1919/1922 15003KT
BECMG 2008/2011 27005KT
Pas de NOTAMs connus pour ce terrain.



MET'MAP, la Météo Aéronautique d'un coup d'oeil ! - Copyright ORBIFLY Décembre 2007 - Disclaimer

ORBIFLY MET'MAP TEAM :

Programmation & Développement : Alexandra Zaïnal
Conception & Développement : Baudouin d'Aumeries
Co-Programmation & Développement : Marc-Olivier Méhu
Soutien technique & logistique : Manuel Goepfert

Contact : metmap@orbifly.com




SOURCES & CREDITS :

   NOAA